SVA1079 OERK-OEJN
Flight info
| Callsign | SVA1079 |
|---|---|
| Flight time | 1h 28m |
| Altitude | 38000 |
| Route | DURMA G782 VEMEM |
| Aircraft | B77W/H-SDE1E2E3FGHIJ2J3J4J5M1RWXY/LB1D1 |
Departure
| Time | 2026-05-03 22:31 |
|---|---|
| Airport | King Khalid International Airport (OERK) |
Arrival
| Time | 2026-05-04 00:00 |
|---|---|
| Airport | King Abdulaziz International Airport (OEJN) |
| Time | Latitude | Longitude | Altitude | Speed | Heading |
|---|---|---|---|---|---|
| 2026-05-03 21:35 | 24.95400 | 46.70719 | 2059 ft | 0 kts | 240° |
| 2026-05-03 22:15 | 24.95402 | 46.70723 | 2032 ft | 4 kts | 240° |
| 2026-05-03 22:15 | 24.95409 | 46.70738 | 2037 ft | 4 kts | 249° |
| 2026-05-03 22:15 | 24.95416 | 46.70763 | 2034 ft | 3 kts | 268° |
| 2026-05-03 22:16 | 24.95413 | 46.70784 | 2032 ft | 3 kts | 296° |
| 2026-05-03 22:16 | 24.95401 | 46.70803 | 2034 ft | 3 kts | 320° |
| 2026-05-03 22:16 | 24.95387 | 46.70814 | 2035 ft | 2 kts | 327° |
| 2026-05-03 22:16 | 24.95378 | 46.70820 | 2037 ft | 2 kts | 329° |
| 2026-05-03 22:17 | 24.95369 | 46.70825 | 2032 ft | 0 kts | 330° |
| 2026-05-03 22:21 | 24.95407 | 46.70802 | 2039 ft | 9 kts | 330° |
| 2026-05-03 22:21 | 24.95462 | 46.70771 | 2038 ft | 9 kts | 342° |
| 2026-05-03 22:21 | 24.95521 | 46.70789 | 2035 ft | 9 kts | 42° |
| 2026-05-03 22:22 | 24.95552 | 46.70852 | 2034 ft | 10 kts | 80° |
| 2026-05-03 22:22 | 24.95520 | 46.70912 | 2035 ft | 10 kts | 148° |
| 2026-05-03 22:22 | 24.95460 | 46.70949 | 2035 ft | 10 kts | 150° |
| 2026-05-03 22:22 | 24.95400 | 46.70986 | 2033 ft | 10 kts | 150° |
| 2026-05-03 22:23 | 24.95345 | 46.71031 | 2035 ft | 10 kts | 124° |
| 2026-05-03 22:23 | 24.95352 | 46.71103 | 2036 ft | 10 kts | 67° |
| 2026-05-03 22:23 | 24.95360 | 46.71178 | 2036 ft | 10 kts | 108° |
| 2026-05-03 22:23 | 24.95306 | 46.71225 | 2034 ft | 10 kts | 154° |
| 2026-05-03 22:24 | 24.95241 | 46.71263 | 2035 ft | 11 kts | 150° |
| 2026-05-03 22:24 | 24.95175 | 46.71304 | 2035 ft | 11 kts | 150° |
| 2026-05-03 22:24 | 24.95111 | 46.71347 | 2035 ft | 11 kts | 149° |
| 2026-05-03 22:24 | 24.95048 | 46.71389 | 2035 ft | 11 kts | 150° |
| 2026-05-03 22:25 | 24.94982 | 46.71428 | 2031 ft | 11 kts | 151° |
| 2026-05-03 22:25 | 24.94917 | 46.71469 | 2032 ft | 11 kts | 150° |
| 2026-05-03 22:25 | 24.94848 | 46.71512 | 2029 ft | 12 kts | 150° |
| 2026-05-03 22:25 | 24.94788 | 46.71569 | 2033 ft | 12 kts | 116° |
| 2026-05-03 22:26 | 24.94795 | 46.71657 | 2028 ft | 12 kts | 86° |
| 2026-05-03 22:26 | 24.94737 | 46.71723 | 2032 ft | 13 kts | 151° |
| 2026-05-03 22:26 | 24.94660 | 46.71771 | 2034 ft | 13 kts | 149° |
| 2026-05-03 22:26 | 24.94582 | 46.71822 | 2031 ft | 13 kts | 151° |
| 2026-05-03 22:27 | 24.94503 | 46.71870 | 2032 ft | 13 kts | 151° |
| 2026-05-03 22:27 | 24.94423 | 46.71919 | 2034 ft | 13 kts | 151° |
| 2026-05-03 22:27 | 24.94344 | 46.71967 | 2029 ft | 13 kts | 150° |
| 2026-05-03 22:27 | 24.94303 | 46.72049 | 2032 ft | 13 kts | 80° |
| 2026-05-03 22:28 | 24.94330 | 46.72112 | 2031 ft | 0 kts | 60° |
| 2026-05-03 22:29 | 24.94334 | 46.72120 | 2030 ft | 5 kts | 60° |
| 2026-05-03 22:29 | 24.94367 | 46.72184 | 2022 ft | 13 kts | 60° |
| 2026-05-03 22:29 | 24.94441 | 46.72244 | 2026 ft | 15 kts | 356° |
| 2026-05-03 22:29 | 24.94509 | 46.72209 | 2026 ft | 0 kts | 330° |
| 2026-05-03 22:30 | 24.94753 | 46.72053 | 2027 ft | 93 kts | 330° |
| 2026-05-03 22:31 | 24.95685 | 46.71454 | 2037 ft | 214 kts | 329° |
| 2026-05-03 22:31 | 24.97124 | 46.70527 | 3186 ft | 249 kts | 329° |
| 2026-05-03 22:31 | 24.98608 | 46.69567 | 4300 ft | 254 kts | 331° |
| 2026-05-03 22:31 | 25.00187 | 46.68588 | 4863 ft | 263 kts | 330° |
| 2026-05-03 22:32 | 25.01777 | 46.67595 | 4939 ft | 266 kts | 330° |
| 2026-05-03 22:32 | 25.03413 | 46.66564 | 4974 ft | 274 kts | 330° |
| 2026-05-03 22:32 | 25.05076 | 46.65503 | 4983 ft | 277 kts | 328° |
| 2026-05-03 22:32 | 25.06680 | 46.64317 | 5046 ft | 278 kts | 324° |
| 2026-05-03 22:33 | 25.08261 | 46.63068 | 5775 ft | 278 kts | 323° |
| 2026-05-03 22:33 | 25.09826 | 46.61825 | 6836 ft | 277 kts | 322° |
| 2026-05-03 22:33 | 25.11391 | 46.60589 | 7884 ft | 275 kts | 322° |
| 2026-05-03 22:33 | 25.12948 | 46.59366 | 8899 ft | 276 kts | 321° |
| 2026-05-03 22:34 | 25.14518 | 46.58137 | 9901 ft | 277 kts | 320° |
| 2026-05-03 22:34 | 25.16113 | 46.56883 | 10669 ft | 288 kts | 321° |
| 2026-05-03 22:34 | 25.17806 | 46.55551 | 10947 ft | 319 kts | 321° |
| 2026-05-03 22:34 | 25.19703 | 46.54069 | 11165 ft | 349 kts | 322° |
| 2026-05-03 22:35 | 25.21755 | 46.52481 | 11714 ft | 367 kts | 322° |
| 2026-05-03 22:35 | 25.23868 | 46.50837 | 12579 ft | 374 kts | 322° |
| 2026-05-03 22:35 | 25.25995 | 46.49159 | 13037 ft | 378 kts | 322° |
| 2026-05-03 22:35 | 25.28133 | 46.47453 | 13006 ft | 377 kts | 319° |
| 2026-05-03 22:36 | 25.29989 | 46.45406 | 13013 ft | 377 kts | 308° |
| 2026-05-03 22:36 | 25.31426 | 46.43003 | 12998 ft | 374 kts | 296° |
| 2026-05-03 22:36 | 25.32341 | 46.40322 | 13005 ft | 371 kts | 284° |
| 2026-05-03 22:36 | 25.32741 | 46.37480 | 13002 ft | 378 kts | 270° |
| 2026-05-03 22:37 | 25.32143 | 46.34650 | 13155 ft | 386 kts | 243° |
| 2026-05-03 22:37 | 25.30454 | 46.32325 | 14029 ft | 394 kts | 226° |
| 2026-05-03 22:37 | 25.28408 | 46.30275 | 14956 ft | 397 kts | 223° |
| 2026-05-03 22:37 | 25.26277 | 46.28332 | 16082 ft | 398 kts | 220° |
| 2026-05-03 22:38 | 25.24051 | 46.26473 | 16870 ft | 404 kts | 217° |
| 2026-05-03 22:38 | 25.21704 | 46.24731 | 17020 ft | 408 kts | 214° |
| 2026-05-03 22:38 | 25.19246 | 46.23155 | 17021 ft | 409 kts | 210° |
| 2026-05-03 22:38 | 25.16694 | 46.21765 | 17021 ft | 410 kts | 206° |
| 2026-05-03 22:39 | 25.14060 | 46.20558 | 17026 ft | 410 kts | 203° |
| 2026-05-03 22:39 | 25.11352 | 46.19532 | 17025 ft | 411 kts | 199° |
| 2026-05-03 22:39 | 25.08631 | 46.18705 | 17023 ft | 412 kts | 196° |
| 2026-05-03 22:39 | 25.05816 | 46.18055 | 17022 ft | 413 kts | 192° |
| 2026-05-03 22:40 | 25.02966 | 46.17605 | 17026 ft | 415 kts | 188° |
| 2026-05-03 22:40 | 25.00083 | 46.17359 | 17023 ft | 416 kts | 185° |
| 2026-05-03 22:40 | 24.97192 | 46.17320 | 17025 ft | 416 kts | 181° |
| 2026-05-03 22:40 | 24.94292 | 46.17487 | 17026 ft | 417 kts | 178° |
| 2026-05-03 22:41 | 24.91384 | 46.17874 | 17579 ft | 425 kts | 173° |
| 2026-05-03 22:41 | 24.88462 | 46.18468 | 18556 ft | 428 kts | 170° |
| 2026-05-03 22:41 | 24.85565 | 46.19268 | 19446 ft | 430 kts | 166° |
| 2026-05-03 22:41 | 24.82705 | 46.20285 | 20277 ft | 435 kts | 162° |
| 2026-05-03 22:42 | 24.79865 | 46.21529 | 21037 ft | 442 kts | 159° |
| 2026-05-03 22:42 | 24.77088 | 46.22972 | 21802 ft | 448 kts | 155° |
| 2026-05-03 22:42 | 24.74258 | 46.24351 | 22298 ft | 445 kts | 168° |
| 2026-05-03 22:42 | 24.71190 | 46.24595 | 22902 ft | 445 kts | 190° |
| 2026-05-03 22:43 | 24.68283 | 46.23562 | 23661 ft | 443 kts | 211° |
| 2026-05-03 22:43 | 24.65931 | 46.21430 | 24328 ft | 441 kts | 231° |
| 2026-05-03 22:43 | 24.64452 | 46.18499 | 25001 ft | 442 kts | 252° |
| 2026-05-03 22:43 | 24.63824 | 46.15183 | 25684 ft | 444 kts | 261° |
| 2026-05-03 22:44 | 24.63432 | 46.11808 | 26299 ft | 447 kts | 260° |
| 2026-05-03 22:44 | 24.62765 | 46.08461 | 26850 ft | 450 kts | 253° |
| 2026-05-03 22:44 | 24.61657 | 46.05241 | 27424 ft | 453 kts | 245° |
| 2026-05-03 22:44 | 24.60195 | 46.02157 | 27996 ft | 456 kts | 240° |
| 2026-05-03 22:45 | 24.58550 | 45.99215 | 28530 ft | 459 kts | 238° |
| 2026-05-03 22:45 | 24.56787 | 45.96272 | 29043 ft | 461 kts | 237° |
| 2026-05-03 22:45 | 24.55002 | 45.93334 | 29555 ft | 463 kts | 237° |
| 2026-05-03 22:45 | 24.53221 | 45.90377 | 30015 ft | 466 kts | 238° |
| 2026-05-03 22:46 | 24.51445 | 45.87384 | 30347 ft | 468 kts | 238° |
| 2026-05-03 22:46 | 24.49676 | 45.84371 | 30741 ft | 468 kts | 238° |
| 2026-05-03 22:46 | 24.47917 | 45.81365 | 31261 ft | 465 kts | 238° |
| 2026-05-03 22:46 | 24.46177 | 45.78397 | 31833 ft | 462 kts | 238° |
| 2026-05-03 22:47 | 24.44495 | 45.75407 | 32414 ft | 458 kts | 241° |
| 2026-05-03 22:47 | 24.43024 | 45.72319 | 32974 ft | 455 kts | 244° |
| 2026-05-03 22:47 | 24.41666 | 45.69191 | 33480 ft | 453 kts | 245° |
| 2026-05-03 22:47 | 24.40360 | 45.66097 | 33978 ft | 451 kts | 245° |
| 2026-05-03 22:48 | 24.39035 | 45.62978 | 34400 ft | 450 kts | 244° |
| 2026-05-03 22:48 | 24.37691 | 45.59867 | 34792 ft | 450 kts | 244° |
| 2026-05-03 22:48 | 24.36336 | 45.56780 | 35175 ft | 449 kts | 244° |
| 2026-05-03 22:48 | 24.34971 | 45.53702 | 35575 ft | 448 kts | 244° |
| 2026-05-03 22:49 | 24.33601 | 45.50635 | 35970 ft | 447 kts | 244° |
| 2026-05-03 22:49 | 24.32232 | 45.47576 | 36359 ft | 446 kts | 244° |
| 2026-05-03 22:49 | 24.30863 | 45.44519 | 36733 ft | 446 kts | 244° |
| 2026-05-03 22:49 | 24.29499 | 45.41475 | 37099 ft | 445 kts | 244° |
| 2026-05-03 22:50 | 24.28135 | 45.38432 | 37478 ft | 444 kts | 244° |
| 2026-05-03 22:50 | 24.26775 | 45.35397 | 37874 ft | 443 kts | 244° |
| 2026-05-03 22:50 | 24.25413 | 45.32360 | 38002 ft | 446 kts | 244° |
| 2026-05-03 22:51 | 24.22672 | 45.26252 | 37998 ft | 446 kts | 244° |
| 2026-05-03 22:51 | 24.19952 | 45.20197 | 37991 ft | 441 kts | 244° |
| 2026-05-03 22:52 | 24.17257 | 45.14205 | 38006 ft | 441 kts | 244° |
| 2026-05-03 22:52 | 24.14541 | 45.08172 | 38012 ft | 442 kts | 244° |
| 2026-05-03 22:53 | 24.11816 | 45.02115 | 38015 ft | 444 kts | 244° |
| 2026-05-03 22:53 | 24.09083 | 44.96045 | 38020 ft | 445 kts | 244° |
| 2026-05-03 22:54 | 24.06337 | 44.89954 | 38011 ft | 445 kts | 244° |
| 2026-05-03 22:54 | 24.03609 | 44.83912 | 38008 ft | 445 kts | 244° |
| 2026-05-03 22:55 | 24.00868 | 44.77848 | 38011 ft | 445 kts | 244° |
| 2026-05-03 22:55 | 23.98124 | 44.71784 | 37995 ft | 444 kts | 243° |
| 2026-05-03 22:56 | 23.95378 | 44.65723 | 38014 ft | 445 kts | 243° |
| 2026-05-03 22:56 | 23.92823 | 44.59559 | 38022 ft | 446 kts | 249° |
| 2026-05-03 22:57 | 23.91141 | 44.53030 | 38017 ft | 446 kts | 256° |
| 2026-05-03 22:57 | 23.89766 | 44.46421 | 38002 ft | 446 kts | 256° |
| 2026-05-03 22:58 | 23.88373 | 44.39806 | 38009 ft | 446 kts | 256° |
| 2026-05-03 22:58 | 23.86964 | 44.33201 | 38001 ft | 446 kts | 256° |
| 2026-05-03 22:59 | 23.85547 | 44.26600 | 38003 ft | 445 kts | 256° |
| 2026-05-03 22:59 | 23.84139 | 44.20056 | 38009 ft | 445 kts | 256° |
| 2026-05-03 23:00 | 23.82721 | 44.13474 | 37997 ft | 444 kts | 256° |
| 2026-05-03 23:00 | 23.81303 | 44.06909 | 37998 ft | 443 kts | 256° |
| 2026-05-03 23:01 | 23.80124 | 44.01461 | 37986 ft | 443 kts | 256° |
| 2026-05-03 23:01 | 23.78702 | 43.94897 | 38000 ft | 444 kts | 256° |
| 2026-05-03 23:02 | 23.77276 | 43.88334 | 38007 ft | 445 kts | 256° |
| 2026-05-03 23:02 | 23.75834 | 43.81753 | 38018 ft | 446 kts | 256° |
| 2026-05-03 23:03 | 23.74386 | 43.75167 | 38009 ft | 446 kts | 255° |
| 2026-05-03 23:03 | 23.72936 | 43.68583 | 38008 ft | 446 kts | 255° |
| 2026-05-03 23:04 | 23.71494 | 43.62044 | 38031 ft | 446 kts | 255° |
| 2026-05-03 23:04 | 23.70040 | 43.55465 | 38021 ft | 445 kts | 255° |
| 2026-05-03 23:05 | 23.68585 | 43.48895 | 38027 ft | 445 kts | 255° |
| 2026-05-03 23:05 | 23.67129 | 43.42336 | 38046 ft | 444 kts | 255° |
| 2026-05-03 23:06 | 23.65676 | 43.35801 | 38031 ft | 444 kts | 255° |
| 2026-05-03 23:06 | 23.64218 | 43.29260 | 38035 ft | 443 kts | 255° |
| 2026-05-03 23:07 | 23.62768 | 43.22765 | 38052 ft | 443 kts | 255° |
| 2026-05-03 23:07 | 23.61309 | 43.16248 | 38037 ft | 442 kts | 255° |
| 2026-05-03 23:08 | 23.59849 | 43.09738 | 38051 ft | 442 kts | 255° |
| 2026-05-03 23:08 | 23.58388 | 43.03235 | 38049 ft | 442 kts | 255° |
| 2026-05-03 23:09 | 23.56922 | 42.96725 | 38055 ft | 442 kts | 255° |
| 2026-05-03 23:09 | 23.55455 | 42.90223 | 38049 ft | 441 kts | 255° |
| 2026-05-03 23:10 | 23.53986 | 42.83726 | 38054 ft | 441 kts | 255° |
| 2026-05-03 23:10 | 23.52523 | 42.77269 | 38042 ft | 441 kts | 255° |
| 2026-05-03 23:11 | 23.51051 | 42.70779 | 38044 ft | 441 kts | 255° |
| 2026-05-03 23:11 | 23.49576 | 42.64282 | 38049 ft | 441 kts | 255° |
| 2026-05-03 23:12 | 23.48102 | 42.57796 | 38054 ft | 441 kts | 255° |
| 2026-05-03 23:12 | 23.46626 | 42.51311 | 38049 ft | 440 kts | 255° |
| 2026-05-03 23:13 | 23.45149 | 42.44841 | 38048 ft | 439 kts | 255° |
| 2026-05-03 23:13 | 23.43675 | 42.38391 | 38064 ft | 438 kts | 255° |
| 2026-05-03 23:14 | 23.42202 | 42.31961 | 38050 ft | 437 kts | 255° |
| 2026-05-03 23:14 | 23.40728 | 42.25541 | 38053 ft | 436 kts | 255° |
| 2026-05-03 23:15 | 23.39253 | 42.19131 | 38059 ft | 436 kts | 255° |
| 2026-05-03 23:15 | 23.37787 | 42.12771 | 38056 ft | 436 kts | 255° |
| 2026-05-03 23:16 | 23.36308 | 42.06368 | 38054 ft | 435 kts | 255° |
| 2026-05-03 23:16 | 23.34829 | 41.99975 | 38055 ft | 435 kts | 255° |
| 2026-05-03 23:17 | 23.33347 | 41.93581 | 38044 ft | 436 kts | 255° |
| 2026-05-03 23:17 | 23.31860 | 41.87179 | 38057 ft | 436 kts | 255° |
| 2026-05-03 23:18 | 23.30369 | 41.80772 | 38065 ft | 437 kts | 255° |
| 2026-05-03 23:18 | 23.28718 | 41.74440 | 38063 ft | 437 kts | 249° |
| 2026-05-03 23:19 | 23.26196 | 41.68415 | 38066 ft | 438 kts | 242° |
| 2026-05-03 23:19 | 23.22988 | 41.62775 | 38069 ft | 438 kts | 238° |
| 2026-05-03 23:20 | 23.19655 | 41.57215 | 38054 ft | 439 kts | 238° |
| 2026-05-03 23:20 | 23.16333 | 41.51647 | 38085 ft | 439 kts | 238° |
| 2026-05-03 23:21 | 23.13019 | 41.46060 | 38076 ft | 440 kts | 238° |
| 2026-05-03 23:21 | 23.09706 | 41.40469 | 38082 ft | 440 kts | 238° |
| 2026-05-03 23:22 | 23.04753 | 41.32121 | 38080 ft | 440 kts | 238° |
| 2026-05-03 23:22 | 23.01433 | 41.26534 | 38095 ft | 440 kts | 238° |
| 2026-05-03 23:23 | 22.98113 | 41.20953 | 38089 ft | 440 kts | 238° |
| 2026-05-03 23:23 | 22.94789 | 41.15370 | 38091 ft | 440 kts | 238° |
| 2026-05-03 23:24 | 22.91473 | 41.09807 | 38088 ft | 440 kts | 238° |
| 2026-05-03 23:24 | 22.88146 | 41.04230 | 38082 ft | 440 kts | 238° |
| 2026-05-03 23:25 | 22.84823 | 40.98671 | 38094 ft | 440 kts | 238° |
| 2026-05-03 23:25 | 22.81486 | 40.93106 | 38099 ft | 440 kts | 238° |
| 2026-05-03 23:26 | 22.78146 | 40.87544 | 38096 ft | 440 kts | 238° |
| 2026-05-03 23:26 | 22.74807 | 40.81987 | 38100 ft | 440 kts | 238° |
| 2026-05-03 23:27 | 22.71494 | 40.76476 | 38098 ft | 440 kts | 238° |
| 2026-05-03 23:27 | 22.68149 | 40.70919 | 38107 ft | 440 kts | 238° |
| 2026-05-03 23:28 | 22.64798 | 40.65356 | 38112 ft | 441 kts | 238° |
| 2026-05-03 23:28 | 22.61445 | 40.59798 | 38114 ft | 441 kts | 238° |
| 2026-05-03 23:29 | 22.58096 | 40.54251 | 38115 ft | 442 kts | 238° |
| 2026-05-03 23:29 | 22.56413 | 40.51467 | 38000 ft | 443 kts | 238° |
| 2026-05-03 23:29 | 22.54701 | 40.48634 | 37161 ft | 453 kts | 238° |
| 2026-05-03 23:30 | 22.52976 | 40.45783 | 36369 ft | 452 kts | 238° |
| 2026-05-03 23:30 | 22.51257 | 40.42942 | 35487 ft | 452 kts | 238° |
| 2026-05-03 23:30 | 22.49526 | 40.40085 | 34528 ft | 455 kts | 238° |
| 2026-05-03 23:30 | 22.47788 | 40.37216 | 33512 ft | 456 kts | 238° |
| 2026-05-03 23:31 | 22.46045 | 40.34340 | 32413 ft | 458 kts | 238° |
| 2026-05-03 23:31 | 22.44292 | 40.31450 | 31367 ft | 460 kts | 238° |
| 2026-05-03 23:31 | 22.42543 | 40.28569 | 30565 ft | 457 kts | 238° |
| 2026-05-03 23:31 | 22.40806 | 40.25708 | 29680 ft | 454 kts | 237° |
| 2026-05-03 23:32 | 22.39078 | 40.22865 | 28837 ft | 449 kts | 237° |
| 2026-05-03 23:32 | 22.37371 | 40.20057 | 28044 ft | 444 kts | 237° |
| 2026-05-03 23:32 | 22.35683 | 40.17280 | 27304 ft | 440 kts | 237° |
| 2026-05-03 23:32 | 22.34012 | 40.14533 | 26587 ft | 436 kts | 237° |
| 2026-05-03 23:33 | 22.32353 | 40.11809 | 25848 ft | 432 kts | 237° |
| 2026-05-03 23:33 | 22.30705 | 40.09101 | 25123 ft | 430 kts | 237° |
| 2026-05-03 23:33 | 22.29070 | 40.06417 | 24421 ft | 427 kts | 237° |
| 2026-05-03 23:33 | 22.27438 | 40.03740 | 23791 ft | 425 kts | 237° |
| 2026-05-03 23:34 | 22.25843 | 40.01127 | 23544 ft | 410 kts | 237° |
| 2026-05-03 23:34 | 22.24317 | 39.98626 | 23349 ft | 396 kts | 237° |
| 2026-05-03 23:34 | 22.22826 | 39.96182 | 23159 ft | 384 kts | 237° |
| 2026-05-03 23:34 | 22.21378 | 39.93809 | 22963 ft | 372 kts | 237° |
| 2026-05-03 23:35 | 22.19980 | 39.91519 | 22811 ft | 360 kts | 237° |
| 2026-05-03 23:35 | 22.18624 | 39.89299 | 22666 ft | 349 kts | 237° |
| 2026-05-03 23:35 | 22.17305 | 39.87141 | 22502 ft | 340 kts | 237° |
| 2026-05-03 23:35 | 22.16011 | 39.85027 | 22055 ft | 338 kts | 237° |
| 2026-05-03 23:36 | 22.14722 | 39.82920 | 21654 ft | 336 kts | 236° |
| 2026-05-03 23:36 | 22.13436 | 39.80819 | 21263 ft | 334 kts | 236° |
| 2026-05-03 23:36 | 22.12158 | 39.78734 | 20863 ft | 332 kts | 236° |
| 2026-05-03 23:36 | 22.10886 | 39.76657 | 20463 ft | 331 kts | 236° |
| 2026-05-03 23:37 | 22.09619 | 39.74589 | 20038 ft | 330 kts | 236° |
| 2026-05-03 23:37 | 22.08354 | 39.72525 | 19635 ft | 329 kts | 236° |
| 2026-05-03 23:37 | 22.07094 | 39.70470 | 19243 ft | 328 kts | 236° |
| 2026-05-03 23:37 | 22.05832 | 39.68412 | 18826 ft | 328 kts | 236° |
| 2026-05-03 23:38 | 22.04571 | 39.66357 | 18401 ft | 328 kts | 235° |
| 2026-05-03 23:38 | 22.03327 | 39.64331 | 17958 ft | 328 kts | 235° |
| 2026-05-03 23:38 | 22.02068 | 39.62281 | 17526 ft | 327 kts | 235° |
| 2026-05-03 23:38 | 22.00817 | 39.60243 | 17131 ft | 326 kts | 235° |
| 2026-05-03 23:39 | 21.99566 | 39.58209 | 16727 ft | 324 kts | 235° |
| 2026-05-03 23:39 | 21.98323 | 39.56186 | 16318 ft | 323 kts | 236° |
| 2026-05-03 23:39 | 21.97088 | 39.54175 | 15928 ft | 322 kts | 236° |
| 2026-05-03 23:39 | 21.95852 | 39.52167 | 15540 ft | 320 kts | 236° |
| 2026-05-03 23:40 | 21.94622 | 39.50168 | 15152 ft | 319 kts | 236° |
| 2026-05-03 23:40 | 21.93484 | 39.48104 | 14675 ft | 321 kts | 242° |
| 2026-05-03 23:40 | 21.92508 | 39.45927 | 14232 ft | 323 kts | 244° |
| 2026-05-03 23:40 | 21.91580 | 39.43746 | 13756 ft | 326 kts | 245° |
| 2026-05-03 23:41 | 21.90630 | 39.41519 | 13284 ft | 327 kts | 245° |
| 2026-05-03 23:41 | 21.89659 | 39.39277 | 12842 ft | 326 kts | 245° |
| 2026-05-03 23:41 | 21.88709 | 39.37114 | 12575 ft | 321 kts | 245° |
| 2026-05-03 23:41 | 21.87758 | 39.34964 | 12259 ft | 317 kts | 245° |
| 2026-05-03 23:42 | 21.86813 | 39.32841 | 11975 ft | 312 kts | 245° |
| 2026-05-03 23:42 | 21.85890 | 39.30772 | 11901 ft | 301 kts | 245° |
| 2026-05-03 23:42 | 21.84997 | 39.28773 | 11796 ft | 290 kts | 245° |
| 2026-05-03 23:42 | 21.84136 | 39.26848 | 11721 ft | 279 kts | 245° |
| 2026-05-03 23:43 | 21.83307 | 39.25009 | 11631 ft | 267 kts | 243° |
| 2026-05-03 23:43 | 21.82127 | 39.23519 | 11382 ft | 263 kts | 214° |
| 2026-05-03 23:43 | 21.80435 | 39.22853 | 11123 ft | 261 kts | 186° |
| 2026-05-03 23:43 | 21.78627 | 39.22985 | 10761 ft | 262 kts | 164° |
| 2026-05-03 23:44 | 21.76902 | 39.23646 | 10389 ft | 264 kts | 159° |
| 2026-05-03 23:44 | 21.75171 | 39.24343 | 10066 ft | 266 kts | 160° |
| 2026-05-03 23:44 | 21.73437 | 39.25034 | 9759 ft | 266 kts | 160° |
| 2026-05-03 23:44 | 21.71703 | 39.25724 | 9478 ft | 265 kts | 159° |
| 2026-05-03 23:45 | 21.69975 | 39.26414 | 9188 ft | 264 kts | 159° |
| 2026-05-03 23:45 | 21.68260 | 39.27095 | 8906 ft | 262 kts | 159° |
| 2026-05-03 23:45 | 21.66553 | 39.27771 | 8620 ft | 261 kts | 159° |
| 2026-05-03 23:45 | 21.65427 | 39.28216 | 8459 ft | 260 kts | 159° |
| 2026-05-03 23:46 | 21.63181 | 39.29104 | 8082 ft | 258 kts | 159° |
| 2026-05-03 23:46 | 21.61491 | 39.29768 | 7806 ft | 258 kts | 159° |
| 2026-05-03 23:46 | 21.59813 | 39.30426 | 7539 ft | 257 kts | 159° |
| 2026-05-03 23:46 | 21.58678 | 39.30870 | 7360 ft | 256 kts | 159° |
| 2026-05-03 23:47 | 21.57010 | 39.31524 | 7085 ft | 255 kts | 159° |
| 2026-05-03 23:47 | 21.55346 | 39.32175 | 6840 ft | 254 kts | 159° |
| 2026-05-03 23:47 | 21.53686 | 39.32824 | 6589 ft | 253 kts | 159° |
| 2026-05-03 23:47 | 21.52034 | 39.33472 | 6343 ft | 252 kts | 159° |
| 2026-05-03 23:48 | 21.50392 | 39.34115 | 6083 ft | 250 kts | 158° |
| 2026-05-03 23:48 | 21.48759 | 39.34755 | 5852 ft | 248 kts | 159° |
| 2026-05-03 23:48 | 21.47167 | 39.35379 | 5617 ft | 245 kts | 160° |
| 2026-05-03 23:48 | 21.45588 | 39.35995 | 5453 ft | 239 kts | 160° |
| 2026-05-03 23:49 | 21.44027 | 39.36608 | 5142 ft | 239 kts | 160° |
| 2026-05-03 23:49 | 21.42460 | 39.37224 | 4878 ft | 239 kts | 160° |
| 2026-05-03 23:49 | 21.40900 | 39.37837 | 4637 ft | 238 kts | 160° |
| 2026-05-03 23:49 | 21.39349 | 39.38445 | 4380 ft | 236 kts | 160° |
| 2026-05-03 23:50 | 21.37807 | 39.39050 | 4127 ft | 234 kts | 160° |
| 2026-05-03 23:50 | 21.36252 | 39.39421 | 3777 ft | 230 kts | 185° |
| 2026-05-03 23:50 | 21.34772 | 39.38835 | 3414 ft | 229 kts | 220° |
| 2026-05-03 23:50 | 21.33797 | 39.37521 | 3152 ft | 224 kts | 244° |
| 2026-05-03 23:51 | 21.33220 | 39.36026 | 3072 ft | 216 kts | 250° |
| 2026-05-03 23:51 | 21.32701 | 39.34496 | 3037 ft | 222 kts | 252° |
| 2026-05-03 23:51 | 21.32560 | 39.32854 | 3020 ft | 227 kts | 283° |
| 2026-05-03 23:51 | 21.33312 | 39.31382 | 3024 ft | 229 kts | 319° |
| 2026-05-03 23:52 | 21.34703 | 39.30601 | 3021 ft | 226 kts | 340° |
| 2026-05-03 23:52 | 21.36198 | 39.30030 | 3021 ft | 230 kts | 340° |
| 2026-05-03 23:52 | 21.37722 | 39.29450 | 3017 ft | 233 kts | 340° |
| 2026-05-03 23:52 | 21.39245 | 39.28864 | 3032 ft | 228 kts | 340° |
| 2026-05-03 23:53 | 21.40700 | 39.28297 | 3005 ft | 218 kts | 339° |
| 2026-05-03 23:53 | 21.42092 | 39.27750 | 2986 ft | 213 kts | 339° |
| 2026-05-03 23:53 | 21.43497 | 39.27196 | 2996 ft | 216 kts | 339° |
| 2026-05-03 23:53 | 21.44902 | 39.26643 | 3015 ft | 214 kts | 339° |
| 2026-05-03 23:54 | 21.46271 | 39.26102 | 2983 ft | 201 kts | 339° |
| 2026-05-03 23:54 | 21.47526 | 39.25607 | 2963 ft | 182 kts | 339° |
| 2026-05-03 23:54 | 21.48661 | 39.25159 | 2971 ft | 170 kts | 339° |
| 2026-05-03 23:54 | 21.49763 | 39.24724 | 2976 ft | 170 kts | 339° |
| 2026-05-03 23:55 | 21.50885 | 39.24281 | 2989 ft | 173 kts | 339° |
| 2026-05-03 23:55 | 21.52006 | 39.23838 | 2929 ft | 170 kts | 339° |
| 2026-05-03 23:55 | 21.53092 | 39.23409 | 2715 ft | 161 kts | 339° |
| 2026-05-03 23:55 | 21.54140 | 39.22995 | 2533 ft | 159 kts | 339° |
| 2026-05-03 23:56 | 21.55188 | 39.22582 | 2328 ft | 161 kts | 339° |
| 2026-05-03 23:56 | 21.56229 | 39.22169 | 2109 ft | 158 kts | 339° |
| 2026-05-03 23:56 | 21.57243 | 39.21770 | 1902 ft | 158 kts | 339° |
| 2026-05-03 23:56 | 21.58278 | 39.21360 | 1711 ft | 158 kts | 339° |
| 2026-05-03 23:57 | 21.59313 | 39.20949 | 1530 ft | 159 kts | 339° |
| 2026-05-03 23:57 | 21.60352 | 39.20540 | 1319 ft | 157 kts | 339° |
| 2026-05-03 23:57 | 21.61367 | 39.20139 | 1097 ft | 153 kts | 339° |
| 2026-05-03 23:57 | 21.62371 | 39.19741 | 933 ft | 155 kts | 338° |
| 2026-05-03 23:58 | 21.63368 | 39.19330 | 766 ft | 151 kts | 339° |
| 2026-05-03 23:58 | 21.64352 | 39.18946 | 581 ft | 149 kts | 340° |
| 2026-05-03 23:58 | 21.65322 | 39.18565 | 392 ft | 147 kts | 340° |
| 2026-05-03 23:58 | 21.66268 | 39.18190 | 165 ft | 146 kts | 339° |
| 2026-05-03 23:59 | 21.67218 | 39.17818 | 62 ft | 146 kts | 339° |
| 2026-05-03 23:59 | 21.68109 | 39.17470 | 36 ft | 126 kts | 341° |
| 2026-05-03 23:59 | 21.68800 | 39.17201 | 33 ft | 83 kts | 340° |
| 2026-05-03 23:59 | 21.69214 | 39.17039 | 35 ft | 54 kts | 340° |
| 2026-05-04 00:00 | 21.69418 | 39.16911 | 33 ft | 18 kts | 266° |
| 2026-05-04 00:00 | 21.69386 | 39.16806 | 35 ft | 11 kts | 250° |
| 2026-05-04 00:00 | 21.69355 | 39.16718 | 36 ft | 14 kts | 246° |
| 2026-05-04 00:00 | 21.69270 | 39.16688 | 37 ft | 14 kts | 168° |
| 2026-05-04 00:01 | 21.69189 | 39.16716 | 37 ft | 12 kts | 160° |
| 2026-05-04 00:01 | 21.69098 | 39.16752 | 37 ft | 13 kts | 160° |
| 2026-05-04 00:01 | 21.69029 | 39.16779 | 37 ft | 12 kts | 160° |
| 2026-05-04 00:01 | 21.68937 | 39.16815 | 37 ft | 16 kts | 160° |
| 2026-05-04 00:02 | 21.68849 | 39.16850 | 37 ft | 15 kts | 160° |
| 2026-05-04 00:02 | 21.68772 | 39.16880 | 37 ft | 9 kts | 159° |
| 2026-05-04 00:02 | 21.68698 | 39.16910 | 37 ft | 13 kts | 159° |
| 2026-05-04 00:02 | 21.68610 | 39.16945 | 37 ft | 15 kts | 159° |
| 2026-05-04 00:03 | 21.68503 | 39.16989 | 37 ft | 18 kts | 159° |
| 2026-05-04 00:03 | 21.68394 | 39.17031 | 37 ft | 14 kts | 160° |
| 2026-05-04 00:03 | 21.68299 | 39.17067 | 37 ft | 15 kts | 160° |
| 2026-05-04 00:03 | 21.68206 | 39.17103 | 37 ft | 12 kts | 160° |
| 2026-05-04 00:04 | 21.68122 | 39.17135 | 37 ft | 13 kts | 160° |
| 2026-05-04 00:04 | 21.68031 | 39.17169 | 37 ft | 14 kts | 166° |
| 2026-05-04 00:04 | 21.67956 | 39.17120 | 37 ft | 14 kts | 244° |
| 2026-05-04 00:04 | 21.67886 | 39.17054 | 37 ft | 14 kts | 185° |
| 2026-05-04 00:05 | 21.67792 | 39.17085 | 37 ft | 13 kts | 160° |
| 2026-05-04 00:05 | 21.67705 | 39.17118 | 37 ft | 13 kts | 160° |
| 2026-05-04 00:05 | 21.67617 | 39.17152 | 37 ft | 13 kts | 160° |
| 2026-05-04 00:05 | 21.67532 | 39.17182 | 37 ft | 13 kts | 162° |
| 2026-05-04 00:06 | 21.67447 | 39.17170 | 37 ft | 13 kts | 211° |
| 2026-05-04 00:06 | 21.67379 | 39.17108 | 37 ft | 13 kts | 223° |
| 2026-05-04 00:06 | 21.67311 | 39.17038 | 37 ft | 13 kts | 226° |
| 2026-05-04 00:06 | 21.67263 | 39.17009 | 37 ft | 7 kts | 158° |
| 2026-05-04 00:07 | 21.67223 | 39.17042 | 37 ft | 7 kts | 139° |
| 2026-05-04 00:07 | 21.67217 | 39.17048 | 37 ft | 2 kts | 140° |
| 2026-05-04 00:07 | 21.67210 | 39.17053 | 37 ft | 1 kts | 140° |
| 2026-05-04 00:07 | 21.67208 | 39.17056 | 37 ft | 0 kts | 140° |